createdAt,value
2023-03-16T00:01:34.908Z,6.97
2023-03-16T00:04:38.520Z,10.98
2023-03-16T00:07:44.795Z,6.70
2023-03-16T00:10:48.231Z,7.80
2023-03-16T00:13:51.510Z,9.30
2023-03-16T00:16:54.349Z,7.05
2023-03-16T00:19:57.750Z,6.40
2023-03-16T00:23:02.892Z,10.30
2023-03-16T00:26:08.283Z,10.33
2023-03-16T00:29:12.049Z,5.82
2023-03-16T00:32:20.336Z,7.28
2023-03-16T00:35:25.242Z,9.43
2023-03-16T00:38:29.700Z,9.00
2023-03-16T00:41:32.925Z,9.00
2023-03-16T00:44:37.182Z,7.40
2023-03-16T00:47:39.981Z,8.27
2023-03-16T00:50:43.410Z,8.98
2023-03-16T00:53:46.957Z,9.55
2023-03-16T00:56:49.949Z,8.50
2023-03-16T00:59:52.958Z,9.52
2023-03-16T01:02:56.934Z,7.45
2023-03-16T01:06:06.351Z,7.45
2023-03-16T01:09:09.784Z,7.65
2023-03-16T01:12:15.888Z,8.10
2023-03-16T01:15:20.304Z,8.82
2023-03-16T01:18:23.666Z,13.10
2023-03-16T01:21:26.433Z,6.20
2023-03-16T01:24:29.254Z,9.63
2023-03-16T01:27:31.947Z,10.13
2023-03-16T01:30:35.857Z,9.07
2023-03-16T01:33:39.319Z,8.50
2023-03-16T01:36:50.460Z,7.13
2023-03-16T01:40:02.426Z,9.23
2023-03-16T01:43:07.737Z,6.57
2023-03-16T01:46:20.596Z,7.47
2023-03-16T01:49:35.925Z,9.63
2023-03-16T01:52:40.099Z,5.80
2023-03-16T01:55:43.239Z,5.90
2023-03-16T01:58:47.085Z,10.00
2023-03-16T02:01:52.178Z,8.60
2023-03-16T02:05:26.438Z,5.15
2023-03-16T02:08:31.665Z,7.55
2023-03-16T02:11:35.201Z,5.00
2023-03-16T02:14:43.490Z,7.47
2023-03-16T02:17:48.482Z,6.15
2023-03-16T02:21:20.216Z,5.55
2023-03-16T02:24:23.186Z,5.88
2023-03-16T02:27:38.166Z,9.40
2023-03-16T02:30:41.596Z,7.03
2023-03-16T02:33:47.732Z,7.38
2023-03-16T02:36:52.457Z,6.53
2023-03-16T02:40:01.938Z,7.32
2023-03-16T02:43:16.717Z,9.63
2023-03-16T02:46:28.693Z,9.70
2023-03-16T02:49:38.644Z,11.15
2023-03-16T02:52:41.995Z,5.15
2023-03-16T02:55:45.961Z,9.82
2023-03-16T02:58:48.955Z,7.82
2023-03-16T03:01:54.265Z,6.03
2023-03-16T03:04:57.096Z,11.65
2023-03-16T03:08:01.914Z,10.80
2023-03-16T03:11:04.841Z,9.10
2023-03-16T03:14:08.377Z,5.90
2023-03-16T03:17:14.562Z,5.97
2023-03-16T03:20:18.502Z,5.68
2023-03-16T03:23:21.658Z,8.65
2023-03-16T03:26:25.194Z,5.78
2023-03-16T03:29:34.788Z,7.68
2023-03-16T03:32:38.163Z,6.40
2023-03-16T03:35:42.304Z,8.50
2023-03-16T03:38:45.514Z,8.38
2023-03-16T03:41:49.112Z,7.35
2023-03-16T03:44:53.270Z,8.18
2023-03-16T03:47:56.655Z,7.00
2023-03-16T03:51:00.638Z,5.38
2023-03-16T03:54:22.456Z,7.65
2023-03-16T03:57:37.576Z,8.15
2023-03-16T04:00:40.351Z,6.68
2023-03-16T04:03:45.160Z,5.80
2023-03-16T04:06:51.391Z,5.10
2023-03-16T04:09:54.141Z,6.43
2023-03-16T04:13:03.053Z,13.88
2023-03-16T04:16:09.818Z,8.70
2023-03-16T04:19:18.213Z,7.33
2023-03-16T04:22:23.396Z,6.88
2023-03-16T04:25:27.825Z,5.53
2023-03-16T04:28:31.026Z,6.93
2023-03-16T04:31:33.981Z,9.55
2023-03-16T04:34:38.666Z,7.73
2023-03-16T04:37:42.451Z,8.38
2023-03-16T04:40:45.399Z,13.80
2023-03-16T04:43:53.429Z,7.47
2023-03-16T04:46:59.481Z,5.93
2023-03-16T04:50:10.649Z,7.47
2023-03-16T04:53:13.658Z,5.10
2023-03-16T04:56:20.092Z,7.68
2023-03-16T04:59:30.245Z,8.75
2023-03-16T05:02:39.864Z,7.40
2023-03-16T05:05:42.819Z,7.93
2023-03-16T05:08:47.038Z,6.75
2023-03-16T05:11:50.344Z,7.03
2023-03-16T05:14:53.364Z,10.32
2023-03-16T05:18:23.178Z,7.53
2023-03-16T05:21:26.278Z,8.57
2023-03-16T05:24:41.133Z,9.98
2023-03-16T05:27:49.329Z,7.53
2023-03-16T05:30:59.176Z,8.40
2023-03-16T05:34:03.676Z,7.57
2023-03-16T05:37:06.493Z,9.93
2023-03-16T05:40:20.400Z,7.50
2023-03-16T05:43:30.218Z,7.47
2023-03-16T05:46:34.823Z,7.05
2023-03-16T05:49:40.277Z,6.50
2023-03-16T05:52:48.612Z,6.33
2023-03-16T05:55:56.766Z,7.20
2023-03-16T05:59:01.006Z,10.02
2023-03-16T06:02:04.031Z,8.00
2023-03-16T06:05:07.704Z,8.52
2023-03-16T06:08:13.363Z,9.07
2023-03-16T06:11:19.005Z,8.40
2023-03-16T06:14:24.093Z,7.97
2023-03-16T06:17:28.929Z,10.60
2023-03-16T06:20:32.172Z,8.95
2023-03-16T06:23:35.732Z,8.57
2023-03-16T06:26:40.294Z,8.50
2023-03-16T06:29:48.132Z,9.05
2023-03-16T06:32:52.401Z,8.82
2023-03-16T06:37:16.888Z,8.95
2023-03-16T06:40:22.188Z,9.40
2023-03-16T06:43:26.601Z,11.45
2023-03-16T06:46:30.329Z,11.35
2023-03-16T06:49:36.175Z,8.70
2023-03-16T06:52:51.503Z,10.32
2023-03-16T06:56:01.309Z,10.37
2023-03-16T06:59:07.884Z,10.23
2023-03-16T07:02:15.041Z,8.68
2023-03-16T07:05:19.476Z,10.07
2023-03-16T07:08:41.232Z,9.35
2023-03-16T07:11:48.067Z,13.33
2023-03-16T07:14:58.839Z,8.90
2023-03-16T07:18:04.642Z,13.95
2023-03-16T07:21:14.999Z,11.77
2023-03-16T07:24:46.887Z,10.88
2023-03-16T07:28:42.836Z,9.90
2023-03-16T07:31:46.726Z,9.18
2023-03-16T07:34:56.456Z,8.07
2023-03-16T07:38:00.396Z,11.88
2023-03-16T07:41:04.527Z,8.25
2023-03-16T07:44:07.553Z,10.10
2023-03-16T07:47:13.447Z,9.48
2023-03-16T07:50:19.555Z,7.57
2023-03-16T07:53:25.472Z,10.13
2023-03-16T07:56:49.003Z,10.40
2023-03-16T08:00:06.489Z,7.97
2023-03-16T08:06:36.717Z,8.90
2023-03-16T08:09:40.097Z,8.25
2023-03-16T08:12:46.427Z,14.48
2023-03-16T08:15:59.296Z,13.13
2023-03-16T08:19:10.134Z,9.70
2023-03-16T08:22:13.549Z,7.25
2023-03-16T08:25:20.379Z,12.55
2023-03-16T08:28:46.406Z,9.27
2023-03-16T08:31:50.208Z,9.57
2023-03-16T08:35:03.709Z,10.15
2023-03-16T08:38:06.830Z,11.30
2023-03-16T08:41:10.062Z,8.68
2023-03-16T08:44:26.704Z,9.60
2023-03-16T08:47:31.583Z,7.00
2023-03-16T08:54:52.659Z,10.40
2023-03-16T08:58:17.224Z,9.85
2023-03-16T09:05:52.894Z,8.17
2023-03-16T09:13:05.282Z,9.73
2023-03-16T09:16:49.593Z,10.45
2023-03-16T09:28:23.244Z,8.63
2023-03-16T09:31:30.015Z,9.77
2023-03-16T09:34:50.918Z,9.43
2023-03-16T09:38:36.675Z,10.20
2023-03-16T09:42:16.233Z,11.10
2023-03-16T09:51:32.425Z,12.05
2023-03-16T09:59:49.662Z,10.07
2023-03-16T10:03:41.526Z,7.40
2023-03-16T10:07:37.662Z,31.63
2023-03-16T10:11:46.328Z,8.55
2023-03-16T10:15:04.863Z,12.68
2023-03-16T10:18:28.275Z,10.48
2023-03-16T10:21:40.337Z,15.40
2023-03-16T10:25:30.090Z,10.75
2023-03-16T10:29:10.983Z,9.15
2023-03-16T10:41:53.348Z,8.53
2023-03-16T10:45:14.555Z,8.43
2023-03-16T10:48:34.272Z,6.15
2023-03-16T10:51:39.162Z,9.07
2023-03-16T10:55:48.289Z,8.20
2023-03-16T10:59:51.480Z,6.57
2023-03-16T11:07:22.881Z,5.85
2023-03-16T11:10:40.436Z,8.10
2023-03-16T11:13:49.364Z,8.60
2023-03-16T11:17:11.221Z,8.40
2023-03-16T11:20:33.285Z,8.25
2023-03-16T11:23:46.474Z,7.63
2023-03-16T11:26:55.077Z,8.13
2023-03-16T11:30:26.815Z,8.18
2023-03-16T11:33:32.344Z,9.77
2023-03-16T11:36:56.929Z,7.63
2023-03-16T11:40:33.540Z,6.80
2023-03-16T11:43:55.729Z,9.75
2023-03-16T11:47:07.631Z,8.80
2023-03-16T11:50:36.049Z,6.73
2023-03-16T11:54:29.397Z,9.57
2023-03-16T11:57:35.145Z,8.52
2023-03-16T12:01:08.977Z,6.72
2023-03-16T12:04:45.965Z,7.00
2023-03-16T12:08:23.202Z,7.90
2023-03-16T12:11:35.915Z,6.60
2023-03-16T12:15:16.427Z,7.32
2023-03-16T12:18:26.409Z,9.15
2023-03-16T12:21:41.925Z,7.20
2023-03-16T12:24:50.759Z,5.43
2023-03-16T12:27:57.213Z,8.57
2023-03-16T12:31:35.423Z,7.95
2023-03-16T12:34:38.920Z,9.23
2023-03-16T12:38:25.261Z,7.43
2023-03-16T12:41:47.589Z,4.57
2023-03-16T12:49:14.905Z,6.10
2023-03-16T12:53:19.037Z,7.05
2023-03-16T12:57:10.798Z,6.45
2023-03-16T13:00:46.792Z,5.57
2023-03-16T13:04:10.836Z,5.25
2023-03-16T13:11:50.402Z,4.55
2023-03-16T13:16:01.811Z,9.45
2023-03-16T13:19:29.256Z,6.93
2023-03-16T13:22:53.429Z,6.55
2023-03-16T13:27:13.560Z,8.52
2023-03-16T13:31:25.222Z,5.78
2023-03-16T13:34:30.729Z,6.45
2023-03-16T13:37:34.079Z,5.93
2023-03-16T13:40:46.665Z,6.70
2023-03-16T13:43:50.118Z,6.20
2023-03-16T13:46:52.928Z,5.25
2023-03-16T13:49:59.113Z,7.53
2023-03-16T13:53:10.630Z,4.80
2023-03-16T13:56:16.147Z,6.22
2023-03-16T13:59:21.791Z,7.53
2023-03-16T14:02:25.215Z,9.07
2023-03-16T14:05:32.039Z,7.43
2023-03-16T14:08:34.981Z,7.57
2023-03-16T14:11:38.826Z,6.40
2023-03-16T14:14:42.388Z,4.80
2023-03-16T14:17:45.280Z,6.28
2023-03-16T14:20:53.128Z,6.35
2023-03-16T14:24:02.228Z,7.97
2023-03-16T14:27:21.317Z,5.55
2023-03-16T14:30:27.955Z,7.72
2023-03-16T14:33:40.250Z,7.95
2023-03-16T14:36:42.972Z,7.53
2023-03-16T14:40:01.885Z,6.67
2023-03-16T14:43:05.023Z,5.15
2023-03-16T14:46:11.225Z,6.65
2023-03-16T14:49:24.973Z,8.15
2023-03-16T14:52:31.874Z,8.57
2023-03-16T14:55:35.012Z,7.10
2023-03-16T14:58:38.009Z,6.78
2023-03-16T15:01:40.821Z,5.50
2023-03-16T15:04:44.506Z,6.80
2023-03-16T15:07:53.664Z,4.97
2023-03-16T15:11:06.582Z,6.97
2023-03-16T15:14:35.379Z,5.05
2023-03-16T15:17:39.100Z,7.28
2023-03-16T15:20:44.632Z,6.55
2023-03-16T15:23:48.224Z,10.32
2023-03-16T15:26:52.414Z,10.77
2023-03-16T15:29:55.156Z,7.25
2023-03-16T15:32:58.107Z,6.28
2023-03-16T15:36:07.336Z,6.50
2023-03-16T15:39:21.315Z,6.13
2023-03-16T15:42:26.160Z,6.37
2023-03-16T15:45:29.143Z,6.95
2023-03-16T15:48:32.753Z,6.93
2023-03-16T15:51:35.636Z,7.85
2023-03-16T15:54:41.705Z,7.10
2023-03-16T15:57:45.689Z,6.13
2023-03-16T16:00:49.011Z,9.95
2023-03-16T16:03:54.458Z,8.85
2023-03-16T16:06:59.022Z,12.55
2023-03-16T16:10:02.499Z,14.57
2023-03-16T16:13:05.796Z,18.67
2023-03-16T16:16:16.039Z,15.20
2023-03-16T16:19:19.074Z,9.65
2023-03-16T16:22:22.137Z,7.43
2023-03-16T16:25:26.247Z,7.28
2023-03-16T16:28:32.127Z,15.00
2023-03-16T16:31:34.974Z,8.75
2023-03-16T16:34:38.140Z,7.15
2023-03-16T16:37:41.143Z,10.77
2023-03-16T16:40:46.388Z,20.05
2023-03-16T16:43:51.720Z,18.07
2023-03-16T16:46:55.312Z,16.08
2023-03-16T16:49:58.146Z,16.70
2023-03-16T16:53:01.157Z,11.32
2023-03-16T16:56:16.451Z,10.05
2023-03-16T16:59:25.421Z,9.50
2023-03-16T17:02:42.020Z,8.48
2023-03-16T17:05:44.851Z,11.80
2023-03-16T17:08:48.326Z,9.02
2023-03-16T17:11:51.637Z,15.65
2023-03-16T17:14:54.417Z,12.83
2023-03-16T17:18:14.514Z,15.98
2023-03-16T17:21:21.375Z,21.42
2023-03-16T17:24:25.007Z,24.17
2023-03-16T17:27:31.716Z,27.08
2023-03-16T17:30:34.478Z,30.13
2023-03-16T17:33:37.200Z,29.02
2023-03-16T17:36:40.139Z,30.85
2023-03-16T17:39:43.021Z,26.92
2023-03-16T17:42:47.488Z,29.60
2023-03-16T17:45:52.425Z,35.87
2023-03-16T17:48:56.283Z,36.33
2023-03-16T17:51:59.237Z,42.45
2023-03-16T17:55:02.253Z,43.97
2023-03-16T17:58:06.042Z,69.93
2023-03-16T18:01:12.410Z,97.63
2023-03-16T18:04:17.848Z,92.22
2023-03-16T18:07:20.981Z,91.55
2023-03-16T18:10:28.620Z,71.05
2023-03-16T18:13:33.494Z,49.55
2023-03-16T18:16:36.658Z,45.27
2023-03-16T18:19:40.467Z,30.80
2023-03-16T18:22:44.051Z,31.42
2023-03-16T18:25:49.071Z,32.65
2023-03-16T18:28:53.604Z,38.50
2023-03-16T18:31:58.410Z,28.30
2023-03-16T18:35:03.878Z,25.48
2023-03-16T18:38:17.710Z,29.55
2023-03-16T18:41:30.571Z,27.10
2023-03-16T18:44:33.874Z,23.85
2023-03-16T18:47:37.482Z,30.60
2023-03-16T18:50:43.812Z,33.67
2023-03-16T18:53:48.501Z,24.17
2023-03-16T18:56:51.909Z,25.17
2023-03-16T18:59:55.487Z,27.27
2023-03-16T19:03:03.346Z,27.30
2023-03-16T19:06:06.653Z,29.95
2023-03-16T19:09:23.292Z,31.67
2023-03-16T19:12:26.410Z,27.52
2023-03-16T19:15:32.601Z,34.90
2023-03-16T19:18:45.108Z,30.90
2023-03-16T19:21:53.964Z,29.13
2023-03-16T19:24:57.701Z,46.85
2023-03-16T19:28:01.335Z,51.30
2023-03-16T19:31:15.678Z,45.78
2023-03-16T19:34:19.087Z,32.20
2023-03-16T19:37:23.969Z,27.88
2023-03-16T19:40:28.678Z,27.95
2023-03-16T19:43:31.848Z,49.15
2023-03-16T19:46:35.604Z,49.60
2023-03-16T19:49:38.418Z,71.40
2023-03-16T19:52:42.043Z,65.30
2023-03-16T19:55:48.351Z,62.25
2023-03-16T19:58:54.584Z,54.75
2023-03-16T20:01:57.690Z,52.92
2023-03-16T20:05:00.706Z,40.60
2023-03-16T20:08:19.026Z,36.15
2023-03-16T20:11:29.350Z,32.28
2023-03-16T20:14:33.671Z,30.45
2023-03-16T20:17:36.758Z,24.65
2023-03-16T20:20:42.104Z,21.00
2023-03-16T20:23:45.297Z,20.13
2023-03-16T20:26:51.500Z,24.48
2023-03-16T20:29:55.945Z,22.58
2023-03-16T20:32:59.097Z,18.05
2023-03-16T20:36:02.234Z,16.37
2023-03-16T20:39:06.818Z,15.10
2023-03-16T20:42:17.901Z,22.42
2023-03-16T20:45:29.280Z,13.02
2023-03-16T20:48:32.889Z,9.77
2023-03-16T20:51:35.954Z,12.40
2023-03-16T20:54:38.981Z,11.02
2023-03-16T20:57:43.720Z,7.68
2023-03-16T21:00:50.595Z,11.50
2023-03-16T21:03:55.793Z,9.98
2023-03-16T21:06:58.693Z,11.57
2023-03-16T21:10:01.679Z,7.93
2023-03-16T21:13:04.830Z,10.88
2023-03-16T21:16:11.436Z,8.82
2023-03-16T21:19:23.345Z,11.00
2023-03-16T21:22:31.675Z,9.67
2023-03-16T21:25:40.728Z,9.40
2023-03-16T21:28:47.822Z,13.30
2023-03-16T21:31:51.946Z,13.57
2023-03-16T21:34:56.828Z,13.48
2023-03-16T21:38:01.597Z,13.37
2023-03-16T21:41:04.640Z,12.27
2023-03-16T21:44:08.099Z,14.10
2023-03-16T21:47:23.442Z,13.93
2023-03-16T21:50:31.873Z,13.48
2023-03-16T21:53:34.706Z,14.90
2023-03-16T21:56:37.705Z,16.50
2023-03-16T21:59:41.317Z,17.45
2023-03-16T22:02:44.786Z,15.77
2023-03-16T22:05:47.757Z,21.38
2023-03-16T22:08:51.442Z,22.80
2023-03-16T22:11:54.401Z,22.52
2023-03-16T22:14:57.186Z,19.33
2023-03-16T22:18:04.806Z,15.38
2023-03-16T22:21:38.947Z,19.65
2023-03-16T22:24:42.129Z,16.50
2023-03-16T22:27:45.756Z,17.33
2023-03-16T22:30:48.625Z,24.45
2023-03-16T22:33:51.765Z,30.80
2023-03-16T22:36:55.816Z,24.38
2023-03-16T22:39:58.940Z,21.73
2023-03-16T22:43:04.569Z,23.77
2023-03-16T22:46:14.339Z,26.13
2023-03-16T22:49:27.919Z,23.10
2023-03-16T22:52:35.697Z,25.30
2023-03-16T22:55:40.411Z,22.27
2023-03-16T22:58:48.696Z,24.58
2023-03-16T23:01:51.944Z,23.48
2023-03-16T23:04:56.328Z,28.30
2023-03-16T23:08:02.704Z,38.40
2023-03-16T23:11:05.608Z,40.40
2023-03-16T23:14:17.015Z,46.50
2023-03-16T23:17:22.472Z,54.05
2023-03-16T23:20:29.261Z,49.67
2023-03-16T23:23:33.133Z,46.78
2023-03-16T23:26:36.481Z,48.43
2023-03-16T23:29:39.638Z,47.60
2023-03-16T23:32:43.782Z,35.35
2023-03-16T23:35:47.079Z,34.95
2023-03-16T23:38:50.962Z,27.00
2023-03-16T23:41:53.938Z,33.60
2023-03-16T23:44:56.809Z,39.17
2023-03-16T23:48:02.773Z,36.72
2023-03-16T23:51:07.303Z,34.03
2023-03-16T23:54:27.939Z,28.65
2023-03-16T23:57:30.731Z,33.40
